Time;durP1;ratioP1;P1;durP2;ratioP2;P2;SDS_P1;SDS_P2;PMS_P1;PMS_P2;Temp;Humidity;BMP_temperature;BMP_pressure;BME280_temperature;BME280_humidity;BME280_pressure;Samples;Min_cycle;Max_cycle;Signal;HPM_P1;HPM_P2
2021/01/10 00:00:46;;;;;;;27.45;16.73;;;-1.30;99.90;;;;;;4974852;28;20030;-80
2021/01/10 00:03:14;;;;;;;26.88;17.85;;;-1.20;99.90;;;;;;4962173;28;20508;-78
2021/01/10 00:05:41;;;;;;;28.20;20.10;;;-1.00;99.90;;;;;;4966839;28;20022;-79
2021/01/10 00:08:07;;;;;;;29.50;19.50;;;-1.00;99.90;;;;;;4961425;28;20042;-78
2021/01/10 00:10:33;;;;;;;26.90;18.55;;;-1.00;99.90;;;;;;4959596;28;20027;-78
2021/01/10 00:13:00;;;;;;;28.55;19.75;;;-0.90;99.90;;;;;;4961381;28;20031;-77
2021/01/10 00:15:26;;;;;;;31.02;19.77;;;-1.10;99.90;;;;;;4959013;28;20510;-77
2021/01/10 00:17:53;;;;;;;30.05;20.63;;;-1.30;99.90;;;;;;4943969;28;20027;-78
2021/01/10 00:20:19;;;;;;;27.85;20.05;;;-1.20;99.90;;;;;;4953311;28;20213;-79
2021/01/10 00:22:49;;;;;;;28.05;19.95;;;-1.10;99.90;;;;;;4948582;28;20043;-77
2021/01/10 00:25:15;;;;;;;29.95;18.63;;;-1.20;99.90;;;;;;4965364;28;20031;-76
2021/01/10 00:27:41;;;;;;;34.15;20.05;;;-1.20;99.90;;;;;;4963679;28;20050;-76
2021/01/10 00:30:10;;;;;;;28.90;19.10;;;-1.20;99.90;;;;;;4953728;28;20522;-75
2021/01/10 00:32:36;;;;;;;28.33;19.90;;;-1.30;99.90;;;;;;4966049;28;20031;-75
2021/01/10 00:35:03;;;;;;;27.27;19.60;;;-1.50;99.90;;;;;;4964830;28;20414;-75
2021/01/10 00:37:28;;;;;;;30.23;19.80;;;-1.50;99.90;;;;;;4971769;28;20033;-76
2021/01/10 00:39:54;;;;;;;31.98;21.67;;;-1.50;99.90;;;;;;4968545;28;20105;-75
2021/01/10 00:42:20;;;;;;;30.70;20.10;;;-1.60;99.90;;;;;;4963650;28;20047;-75
2021/01/10 00:44:46;;;;;;;32.53;21.00;;;-1.60;99.90;;;;;;4963923;28;20023;-74
2021/01/10 00:47:13;;;;;;;32.30;20.02;;;-1.60;99.90;;;;;;4960613;28;20047;-75
2021/01/10 00:49:39;;;;;;;31.85;20.60;;;-1.60;99.90;;;;;;4972076;28;20059;-74
2021/01/10 00:52:06;;;;;;;32.85;20.42;;;-1.60;99.90;;;;;;4982407;28;20081;-75
2021/01/10 00:54:32;;;;;;;35.13;23.05;;;-1.70;99.90;;;;;;4971668;28;20523;-75
2021/01/10 00:57:01;;;;;;;33.80;22.60;;;-1.70;99.90;;;;;;4966986;28;20023;-75
2021/01/10 00:59:27;;;;;;;35.88;22.88;;;-1.90;99.90;;;;;;4967360;28;20062;-74
2021/01/10 01:01:52;;;;;;;33.83;21.75;;;-1.90;99.90;;;;;;4973135;28;20031;-74
2021/01/10 01:04:19;;;;;;;36.53;20.65;;;-1.90;99.90;;;;;;4972658;28;20035;-75
2021/01/10 01:06:45;;;;;;;33.42;21.55;;;-1.90;99.90;;;;;;4980563;28;20037;-76
2021/01/10 01:09:10;;;;;;;30.55;21.45;;;-1.70;99.90;;;;;;4991486;28;20032;-76
2021/01/10 01:11:38;;;;;;;33.00;22.90;;;-1.70;99.90;;;;;;4981237;28;20023;-75
2021/01/10 01:14:05;;;;;;;29.80;20.90;;;-1.60;99.90;;;;;;4967189;28;20031;-75
2021/01/10 01:16:31;;;;;;;31.30;20.80;;;-1.70;99.90;;;;;;4964970;28;20034;-74
2021/01/10 01:18:57;;;;;;;37.45;23.17;;;-1.70;99.90;;;;;;4975948;28;20022;-74
2021/01/10 01:21:23;;;;;;;38.92;23.17;;;-1.80;99.90;;;;;;4972879;28;20031;-75
2021/01/10 01:23:50;;;;;;;32.65;20.70;;;-1.70;99.90;;;;;;4955500;28;20038;-76
2021/01/10 01:26:19;;;;;;;30.70;21.05;;;-1.70;99.90;;;;;;4966894;28;20031;-74
2021/01/10 01:28:45;;;;;;;31.17;20.80;;;-1.60;99.90;;;;;;4958011;28;20035;-75
2021/01/10 01:31:16;;;;;;;32.30;21.55;;;-1.60;99.90;;;;;;4967598;28;20566;-75
2021/01/10 01:33:42;;;;;;;31.42;21.23;;;-1.60;99.90;;;;;;4973189;28;20114;-75
2021/01/10 01:36:16;;;;;;;32.10;20.30;;;-1.60;99.90;;;;;;4968269;28;20475;-75
2021/01/10 01:38:43;;;;;;;29.70;20.00;;;-1.60;99.90;;;;;;4962461;28;20023;-74
2021/01/10 01:41:09;;;;;;;28.65;19.92;;;-1.60;99.90;;;;;;4970794;28;20390;-74
2021/01/10 01:43:36;;;;;;;30.23;20.40;;;-1.60;99.90;;;;;;4970639;28;20030;-75
2021/01/10 01:46:07;;;;;;;34.80;21.60;;;-1.50;99.90;;;;;;4965103;28;20385;-74
2021/01/10 01:48:33;;;;;;;29.02;18.85;;;-1.50;99.90;;;;;;4968721;28;20035;-75
2021/01/10 01:51:00;;;;;;;27.85;18.92;;;-1.50;99.90;;;;;;4962625;28;20479;-76
2021/01/10 01:53:28;;;;;;;26.88;18.95;;;-1.40;99.90;;;;;;4954563;28;20110;-75
2021/01/10 01:55:55;;;;;;;33.10;19.50;;;-1.30;99.90;;;;;;4963474;28;20023;-75
2021/01/10 01:58:21;;;;;;;28.25;19.52;;;-1.20;99.90;;;;;;4967683;28;20399;-74
2021/01/10 02:00:48;;;;;;;29.98;20.38;;;-1.20;99.90;;;;;;4954523;28;20106;-75
2021/01/10 02:03:38;;;;;;;29.90;20.02;;;-1.30;99.90;;;;;;4963351;28;20032;-75
2021/01/10 02:06:14;;;;;;;29.73;18.60;;;-1.40;99.90;;;;;;4945152;28;20473;-75
2021/01/10 02:08:41;;;;;;;29.90;18.95;;;-1.40;99.90;;;;;;4961974;28;20091;-76
2021/01/10 02:11:11;;;;;;;27.67;19.02;;;-1.50;99.90;;;;;;4956076;28;20046;-75
2021/01/10 02:13:38;;;;;;;25.77;17.38;;;-1.60;99.90;;;;;;4954189;28;20016;-75
2021/01/10 02:16:05;;;;;;;24.17;16.92;;;-1.60;99.90;;;;;;4990764;28;20065;-75
2021/01/10 02:18:33;;;;;;;26.27;18.42;;;-1.70;99.90;;;;;;4983109;28;20022;-75
2021/01/10 02:21:07;;;;;;;26.27;18.83;;;-1.70;99.90;;;;;;4981892;28;20031;-74
2021/01/10 02:23:34;;;;;;;30.50;20.20;;;-1.70;99.90;;;;;;4971853;28;20039;-77
2021/01/10 02:26:02;;;;;;;25.00;17.63;;;-1.80;99.90;;;;;;4973143;28;20035;-76
2021/01/10 02:28:31;;;;;;;26.60;18.05;;;-1.70;99.90;;;;;;4950095;28;20375;-76
2021/01/10 02:31:02;;;;;;;24.70;17.65;;;-1.70;99.90;;;;;;4944551;28;20050;-77
2021/01/10 02:33:39;;;;;;;26.73;17.70;;;-1.80;99.90;;;;;;4955096;28;20047;-77
2021/01/10 02:36:08;;;;;;;30.35;18.70;;;-1.90;99.90;;;;;;4948200;28;20072;-76
2021/01/10 02:38:57;;;;;;;25.35;17.38;;;-2.00;99.90;;;;;;4979348;28;20027;-80
2021/01/10 02:41:40;;;;;;;26.23;17.08;;;-2.00;99.90;;;;;;4962687;29;20023;-76
2021/01/10 02:44:25;;;;;;;29.55;20.10;;;-2.00;99.90;;;;;;4962730;28;20036;-75
2021/01/10 02:46:53;;;;;;;28.00;19.92;;;-2.10;99.90;;;;;;4979161;28;20011;-73
2021/01/10 02:49:20;;;;;;;29.88;19.83;;;-2.00;99.90;;;;;;4970409;28;20036;-74
2021/01/10 02:51:49;;;;;;;30.50;19.85;;;-2.10;99.90;;;;;;4943200;28;20024;-73
2021/01/10 02:54:15;;;;;;;30.10;19.60;;;-2.00;99.90;;;;;;4940673;29;20471;-75
2021/01/10 02:56:57;;;;;;;30.92;18.95;;;-2.10;99.90;;;;;;4949242;28;20396;-75
2021/01/10 02:59:26;;;;;;;30.30;18.45;;;-2.10;99.90;;;;;;4938195;29;20399;-75
2021/01/10 03:01:55;;;;;;;28.65;19.13;;;-2.10;99.90;;;;;;4946265;28;20117;-75
2021/01/10 03:04:22;;;;;;;27.35;18.42;;;-2.20;99.90;;;;;;4944533;28;20092;-77
2021/01/10 03:06:52;;;;;;;28.45;19.05;;;-2.10;99.90;;;;;;4940544;28;20028;-77
2021/01/10 03:09:18;;;;;;;31.27;20.27;;;-2.10;99.90;;;;;;4955637;29;20027;-77
2021/01/10 03:11:44;;;;;;;25.23;17.70;;;-2.10;99.90;;;;;;4949383;28;20312;-77
2021/01/10 03:14:09;;;;;;;27.08;19.15;;;-2.20;99.90;;;;;;4936682;29;20079;-77
2021/01/10 03:16:36;;;;;;;29.00;18.77;;;-2.20;99.90;;;;;;4937565;28;20032;-78
2021/01/10 03:19:02;;;;;;;25.63;17.50;;;-2.10;99.90;;;;;;4972345;28;20035;-78
2021/01/10 03:21:28;;;;;;;26.40;17.80;;;-2.20;99.90;;;;;;4965771;28;20448;-76
2021/01/10 03:23:55;;;;;;;28.63;17.55;;;-2.20;99.90;;;;;;4984866;28;20138;-77
2021/01/10 03:26:21;;;;;;;23.98;17.38;;;-2.20;99.90;;;;;;4990377;28;20027;-76
2021/01/10 03:28:46;;;;;;;27.55;18.52;;;-2.30;99.90;;;;;;4989002;28;20038;-76
2021/01/10 03:31:12;;;;;;;24.05;16.30;;;-2.30;99.90;;;;;;4970674;28;20034;-77
2021/01/10 03:33:45;;;;;;;28.10;19.05;;;-2.30;99.90;;;;;;4965093;28;20031;-76
2021/01/10 03:36:14;;;;;;;24.95;16.88;;;-2.20;99.90;;;;;;4967919;28;20027;-76
2021/01/10 03:38:40;;;;;;;22.90;15.82;;;-2.20;99.90;;;;;;4971653;28;20027;-77
2021/01/10 03:41:06;;;;;;;27.48;18.15;;;-2.20;99.90;;;;;;4981410;28;20082;-77
2021/01/10 03:43:32;;;;;;;24.80;16.92;;;-2.20;99.90;;;;;;4976147;28;20026;-77
2021/01/10 03:45:58;;;;;;;23.63;15.75;;;-2.10;99.90;;;;;;4975335;28;20049;-77
2021/01/10 03:48:24;;;;;;;21.30;15.77;;;-2.10;99.90;;;;;;4976825;28;20034;-76
2021/01/10 03:50:49;;;;;;;24.35;14.43;;;-2.10;99.90;;;;;;4985532;28;20039;-76
2021/01/10 03:53:15;;;;;;;25.92;17.75;;;-2.00;99.90;;;;;;4979595;28;20047;-77
2021/01/10 03:55:41;;;;;;;24.27;16.60;;;-1.90;99.90;;;;;;4953061;28;20448;-75
2021/01/10 03:58:06;;;;;;;26.27;17.00;;;-1.90;99.90;;;;;;4966320;28;20064;-76
2021/01/10 04:00:32;;;;;;;23.88;16.65;;;-1.80;99.90;;;;;;4974233;28;20498;-76
2021/01/10 04:02:57;;;;;;;23.48;16.27;;;-1.90;99.90;;;;;;4971674;28;20054;-76
2021/01/10 04:05:23;;;;;;;27.08;16.23;;;-2.00;99.90;;;;;;4970434;28;20091;-76
2021/01/10 04:07:49;;;;;;;22.77;15.88;;;-2.10;99.90;;;;;;4971615;28;20838;-77
2021/01/10 04:10:14;;;;;;;27.30;17.05;;;-2.20;99.90;;;;;;4943222;28;20058;-77
2021/01/10 04:12:40;;;;;;;25.02;16.58;;;-2.20;99.90;;;;;;4959410;28;20508;-76
2021/01/10 04:15:06;;;;;;;23.15;16.45;;;-2.20;99.90;;;;;;4957857;28;20649;-76
2021/01/10 04:17:34;;;;;;;24.25;14.45;;;-2.10;99.90;;;;;;4945347;28;20028;-77
2021/01/10 04:20:00;;;;;;;24.77;16.35;;;-2.10;99.90;;;;;;4946078;28;20089;-77
2021/01/10 04:22:26;;;;;;;24.23;16.98;;;-2.10;99.90;;;;;;4969129;28;20646;-78
2021/01/10 04:24:51;;;;;;;26.15;16.05;;;-2.00;99.90;;;;;;4961473;28;20094;-77
2021/01/10 04:27:18;;;;;;;19.88;13.98;;;-2.00;99.90;;;;;;4948917;28;20050;-77
2021/01/10 04:29:43;;;;;;;22.65;15.50;;;-1.90;99.90;;;;;;4967192;28;20023;-76
2021/01/10 04:32:09;;;;;;;19.83;13.70;;;-1.80;99.90;;;;;;4953869;28;20055;-76
2021/01/10 04:34:35;;;;;;;23.85;14.38;;;-1.60;99.90;;;;;;4943392;28;20035;-77
2021/01/10 04:37:01;;;;;;;20.17;12.57;;;-1.60;99.90;;;;;;4961746;28;20033;-76
2021/01/10 04:39:27;;;;;;;24.55;14.85;;;-1.40;99.90;;;;;;4962260;28;20103;-77
2021/01/10 04:41:53;;;;;;;24.90;15.95;;;-1.60;99.90;;;;;;4958271;28;20037;-77
2021/01/10 04:44:19;;;;;;;18.30;12.35;;;-1.60;99.90;;;;;;4972225;28;20023;-76
2021/01/10 04:46:45;;;;;;;16.10;11.43;;;-1.60;99.90;;;;;;4976966;28;20038;-76
2021/01/10 04:49:12;;;;;;;19.10;13.00;;;-1.50;99.90;;;;;;4974333;28;20126;-76
2021/01/10 04:51:39;;;;;;;15.85;12.05;;;-1.50;99.90;;;;;;4975111;28;20398;-77
2021/01/10 04:54:06;;;;;;;15.30;11.13;;;-1.40;99.90;;;;;;4966304;28;20034;-76
2021/01/10 04:56:35;;;;;;;16.20;12.57;;;-1.10;99.90;;;;;;4960989;28;20410;-76
2021/01/10 04:59:10;;;;;;;16.08;12.07;;;-1.10;98.50;;;;;;4981228;23;20035;-78
2021/01/10 05:01:50;;;;;;;16.85;12.00;;;-1.20;99.90;;;;;;4991404;28;20027;-77
2021/01/10 05:04:22;;;;;;;16.80;12.20;;;-0.90;69.90;;;;;;4984323;28;20027;-78
2021/01/10 05:06:54;;;;;;;17.15;12.80;;;-1.00;96.10;;;;;;4978735;28;20024;-78
2021/01/10 05:09:32;;;;;;;16.02;11.82;;;-0.90;83.40;;;;;;5000129;28;20046;-77
2021/01/10 05:12:01;;;;;;;17.13;11.00;;;-1.00;99.30;;;;;;4987350;28;20042;-77
2021/01/10 05:14:36;;;;;;;15.88;11.45;;;-1.00;85.10;;;;;;4985828;28;20027;-77
2021/01/10 05:17:04;;;;;;;15.40;11.65;;;-0.90;81.20;;;;;;4987007;28;20047;-77
2021/01/10 05:19:38;;;;;;;16.58;12.00;;;-0.80;49.50;;;;;;4977463;28;20539;-77
2021/01/10 05:22:20;;;;;;;17.35;12.95;;;-1.00;64.30;;;;;;4965980;28;20027;-78
2021/01/10 05:24:52;;;;;;;17.48;13.02;;;-1.20;97.70;;;;;;4970812;28;20045;-78
2021/01/10 05:27:26;;;;;;;17.42;13.55;;;-1.20;99.90;;;;;;4980058;28;20122;-78
2021/01/10 05:30:00;;;;;;;21.58;14.35;;;-1.10;71.40;;;;;;4968500;28;20030;-78
2021/01/10 05:32:35;;;;;;;17.00;12.45;;;-1.00;84.60;;;;;;4968018;28;20027;-78
2021/01/10 05:35:13;;;;;;;18.50;13.38;;;-0.90;66.80;;;;;;4966401;28;20027;-77
2021/01/10 05:37:54;;;;;;;20.20;13.98;;;-1.20;81.80;;;;;;4962908;28;21425;-78
2021/01/10 05:40:39;;;;;;;19.02;12.15;;;-1.40;99.90;;;;;;4958355;28;20064;-78
2021/01/10 05:43:11;;;;;;;20.70;13.98;;;-1.50;99.90;;;;;;4955672;28;20039;-78
2021/01/10 05:45:37;;;;;;;18.65;14.13;;;-1.50;99.90;;;;;;4963102;28;20042;-77
2021/01/10 05:48:13;;;;;;;18.02;13.35;;;-1.40;99.90;;;;;;4965390;28;20062;-78
2021/01/10 05:50:47;;;;;;;19.42;14.50;;;-1.40;99.90;;;;;;4963681;28;20085;-79
2021/01/10 05:53:25;;;;;;;21.67;14.63;;;-1.40;99.90;;;;;;4962090;28;20047;-79
2021/01/10 05:56:03;;;;;;;17.63;12.55;;;-1.40;99.90;;;;;;4971895;28;20114;-78
2021/01/10 05:58:36;;;;;;;16.77;12.68;;;-1.50;99.90;;;;;;4966759;28;20126;-79
2021/01/10 06:01:16;;;;;;;18.92;13.20;;;-1.60;99.90;;;;;;4971467;28;20057;-78
2021/01/10 06:03:44;;;;;;;17.77;13.23;;;-1.50;99.90;;;;;;4961943;28;20497;-79
2021/01/10 06:06:10;;;;;;;17.92;13.00;;;-1.40;99.90;;;;;;4966444;28;20110;-79
2021/01/10 06:08:40;;;;;;;17.35;12.80;;;-1.40;99.90;;;;;;4971185;28;20114;-77
2021/01/10 06:11:25;;;;;;;20.90;14.50;;;-1.50;99.90;;;;;;4968987;28;20027;-78
2021/01/10 06:14:09;;;;;;;20.20;13.07;;;-1.40;99.90;;;;;;4955215;28;20027;-79
2021/01/10 06:16:40;;;;;;;19.60;13.13;;;-1.30;99.90;;;;;;4968017;28;20407;-77
2021/01/10 06:19:11;;;;;;;18.75;13.15;;;-1.40;99.90;;;;;;4964844;28;20042;-77
2021/01/10 06:21:40;;;;;;;19.25;13.95;;;-1.40;99.90;;;;;;4968713;28;20102;-77
2021/01/10 06:24:21;;;;;;;18.10;13.07;;;-1.40;99.90;;;;;;4956703;28;20035;-77
2021/01/10 06:27:00;;;;;;;20.50;12.85;;;-1.40;99.90;;;;;;4966193;28;20483;-78
2021/01/10 06:29:27;;;;;;;17.13;13.13;;;-1.20;99.90;;;;;;4974916;28;20061;-79
2021/01/10 06:32:02;;;;;;;18.33;13.18;;;-1.00;86.20;;;;;;4984702;28;20031;-77
2021/01/10 06:34:38;;;;;;;22.50;12.98;;;-1.10;99.90;;;;;;4968016;29;20035;-77
2021/01/10 06:37:12;;;;;;;23.65;15.00;;;-1.20;99.90;;;;;;4969832;28;20109;-77
2021/01/10 06:39:43;;;;;;;18.00;13.25;;;-1.00;99.90;;;;;;4969091;28;20023;-79
2021/01/10 06:42:17;;;;;;;22.27;14.35;;;-0.70;83.90;;;;;;4961650;29;20068;-77
2021/01/10 06:44:48;;;;;;;18.83;13.23;;;-0.80;82.90;;;;;;4968188;28;20069;-79
2021/01/10 06:47:17;;;;;;;19.30;14.43;;;-0.70;49.60;;;;;;4971954;28;20121;-78
2021/01/10 06:49:54;;;;;;;19.20;13.70;;;-1.00;97.80;;;;;;4962834;28;20027;-78
2021/01/10 06:52:32;;;;;;;15.82;12.45;;;-0.90;99.90;;;;;;4964816;28;20028;-79
2021/01/10 06:55:09;;;;;;;17.25;11.85;;;-0.90;99.90;;;;;;4967168;28;20039;-79
2021/01/10 06:57:37;;;;;;;20.80;13.88;;;-0.70;67.30;;;;;;4984228;28;20068;-78
2021/01/10 07:00:10;;;;;;;19.08;13.88;;;-0.80;55.20;;;;;;4968343;28;20043;-78
2021/01/10 07:03:07;;;;;;;20.77;15.13;;;-0.90;86.90;;;;;;4983814;28;20047;-77
2021/01/10 07:06:12;;;;;;;28.52;15.40;;;-0.70;78.60;;;;;;4970103;28;20027;-78
2021/01/10 07:08:56;;;;;;;20.27;14.15;;;-0.80;56.80;;;;;;4986237;28;20095;-76
2021/01/10 07:11:32;;;;;;;19.08;13.43;;;-0.90;73.40;;;;;;4982219;28;20031;-78
2021/01/10 07:13:57;;;;;;;21.92;14.02;;;-0.90;98.60;;;;;;4984106;28;20031;-79
2021/01/10 07:16:36;;;;;;;20.55;15.07;;;-0.90;93.40;;;;;;4974727;28;20070;-78
2021/01/10 07:19:15;;;;;;;18.98;14.52;;;-1.00;99.90;;;;;;4976858;28;20114;-79
2021/01/10 07:21:47;;;;;;;19.33;12.63;;;-0.90;99.90;;;;;;4966582;28;20037;-78
2021/01/10 07:24:20;;;;;;;17.30;12.63;;;-1.10;99.90;;;;;;4964626;28;20016;-77
2021/01/10 07:26:54;;;;;;;19.13;13.43;;;-1.10;99.90;;;;;;4973965;28;20023;-78
2021/01/10 07:29:38;;;;;;;20.23;14.50;;;-0.90;98.80;;;;;;4964285;28;20038;-78
2021/01/10 07:32:27;;;;;;;22.15;13.25;;;-0.70;94.60;;;;;;4973068;28;20034;-77
2021/01/10 07:34:56;;;;;;;17.17;13.45;;;-0.60;69.60;;;;;;4975692;28;20026;-77
2021/01/10 07:37:25;;;;;;;19.60;13.77;;;-0.60;78.00;;;;;;4966958;28;20029;-79
2021/01/10 07:40:00;;;;;;;18.05;13.45;;;-0.70;55.10;;;;;;4964838;28;20039;-78
2021/01/10 07:42:33;;;;;;;19.05;13.55;;;-0.80;95.10;;;;;;4964009;28;20059;-77
2021/01/10 07:45:25;;;;;;;21.70;13.82;;;-0.70;77.00;;;;;;4960925;28;20042;-79
2021/01/10 07:47:52;;;;;;;18.52;13.18;;;-0.50;35.70;;;;;;4960237;28;20027;-78
2021/01/10 07:50:25;;;;;;;19.75;13.48;;;-0.50;19.90;;;;;;4996491;28;20030;-78
2021/01/10 07:53:00;;;;;;;17.85;12.93;;;-0.50;29.70;;;;;;4980580;28;20031;-79
2021/01/10 07:55:39;;;;;;;18.63;14.40;;;-0.60;19.90;;;;;;4950419;28;20054;-78
2021/01/10 07:58:08;;;;;;;16.27;13.15;;;-0.60;39.60;;;;;;4958292;28;20040;-77
2021/01/10 08:00:50;;;;;;;18.38;13.85;;;-0.60;38.60;;;;;;4964700;28;20036;-78
2021/01/10 08:03:23;;;;;;;18.35;12.48;;;-0.80;56.70;;;;;;4958573;28;20082;-78
2021/01/10 08:06:10;;;;;;;20.08;13.60;;;-0.60;32.00;;;;;;4953442;28;20094;-78
2021/01/10 08:08:46;;;;;;;18.20;13.50;;;-0.60;20.30;;;;;;4952435;28;20074;-78
2021/01/10 08:11:34;;;;;;;18.05;12.30;;;-0.60;46.80;;;;;;4972064;28;20038;-78
2021/01/10 08:14:06;;;;;;;16.83;12.93;;;-0.40;12.70;;;;;;4959311;28;20106;-78
2021/01/10 08:16:46;;;;;;;18.95;12.95;;;-0.50;1.00;;;;;;4959686;28;20491;-77
2021/01/10 08:19:14;;;;;;;19.45;15.07;;;-0.30;4.70;;;;;;4963436;28;20028;-76
2021/01/10 08:21:47;;;;;;;20.50;13.60;;;-0.30;1.90;;;;;;4968154;28;20034;-76
2021/01/10 08:24:14;;;;;;;17.48;14.27;;;-0.40;1.00;;;;;;4975129;28;20027;-77
2021/01/10 08:26:43;;;;;;;18.13;13.18;;;-0.40;1.00;;;;;;4969480;28;20038;-76
2021/01/10 08:29:18;;;;;;;18.15;12.60;;;-0.30;1.00;;;;;;4968197;28;20043;-77
2021/01/10 08:31:55;;;;;;;19.02;12.77;;;-0.30;1.00;;;;;;4962136;28;20479;-79
2021/01/10 08:34:21;;;;;;;16.77;12.45;;;-0.50;14.30;;;;;;4969229;28;20019;-80
2021/01/10 08:36:50;;;;;;;19.33;14.13;;;-0.30;1.00;;;;;;4981971;28;20023;-79
2021/01/10 08:39:27;;;;;;;19.05;13.98;;;-0.40;6.40;;;;;;4966392;28;20115;-78
2021/01/10 08:41:58;;;;;;;17.92;13.13;;;-0.50;1.00;;;;;;4960833;28;20030;-77
2021/01/10 08:44:29;;;;;;;16.42;13.32;;;-0.50;19.70;;;;;;4982915;28;20115;-78
2021/01/10 08:47:06;;;;;;;;;;;-0.20;1.00;;;;;;4984836;28;20028;-78
2021/01/10 08:49:32;;;;;;;15.43;11.43;;;-0.20;1.00;;;;;;4972797;28;19967;-76
2021/01/10 08:52:04;;;;;;;20.10;12.68;;;0.00;1.00;;;;;;4981112;28;20042;-78
2021/01/10 08:54:33;;;;;;;22.20;12.80;;;0.00;1.00;;;;;;4975721;28;20042;-77
2021/01/10 08:57:02;;;;;;;16.25;13.02;;;0.00;1.00;;;;;;4982131;28;20020;-80
2021/01/10 08:59:43;;;;;;;15.50;12.23;;;0.00;1.00;;;;;;4967463;28;20035;-78
2021/01/10 09:02:14;;;;;;;;;;;0.30;1.00;;;;;;4982025;28;20034;-78
2021/01/10 09:04:51;;;;;;;17.60;12.82;;;0.40;1.00;;;;;;4988020;28;19911;-77
2021/01/10 09:07:27;;;;;;;20.88;14.07;;;0.30;1.00;;;;;;4973353;28;20035;-79
2021/01/10 09:10:16;;;;;;;18.40;13.57;;;0.40;1.00;;;;;;4969384;28;20027;-77
2021/01/10 09:13:04;;;;;;;19.13;13.90;;;0.40;1.00;;;;;;4969442;28;20036;-77
2021/01/10 09:15:43;;;;;;;17.13;13.52;;;0.30;1.00;;;;;;4972284;28;20383;-77
2021/01/10 09:18:19;;;;;;;18.52;14.18;;;0.20;1.00;;;;;;4978698;28;20142;-79
2021/01/10 09:21:01;;;;;;;20.63;14.35;;;0.30;1.00;;;;;;4964101;28;20059;-78
2021/01/10 09:23:32;;;;;;;20.27;12.90;;;0.30;1.00;;;;;;4966853;28;20027;-78
2021/01/10 09:26:06;;;;;;;18.08;13.75;;;0.00;1.00;;;;;;4967070;28;20023;-78
2021/01/10 09:28:51;;;;;;;16.15;12.15;;;-0.10;11.80;;;;;;4977888;28;20032;-79
2021/01/10 09:31:22;;;;;;;18.63;13.90;;;-0.20;26.20;;;;;;4970186;28;20043;-77
2021/01/10 09:34:04;;;;;;;16.95;13.50;;;-0.10;16.40;;;;;;4969222;28;20047;-76
2021/01/10 09:36:33;;;;;;;16.90;13.25;;;0.00;1.00;;;;;;4969207;28;20027;-79
2021/01/10 09:39:09;;;;;;;15.98;11.95;;;-0.10;26.80;;;;;;4966270;28;20051;-78
2021/01/10 09:42:12;;;;;;;16.73;11.75;;;-0.10;30.50;;;;;;4977913;28;20034;-78
2021/01/10 09:44:47;;;;;;;13.90;11.45;;;0.20;1.00;;;;;;4913820;29;20104;-78
2021/01/10 09:47:16;;;;;;;14.55;11.25;;;0.20;1.00;;;;;;4966207;28;20050;-78
2021/01/10 09:49:48;;;;;;;13.82;11.00;;;0.30;1.00;;;;;;4970151;28;20031;-78
2021/01/10 09:52:22;;;;;;;16.60;12.10;;;0.40;1.00;;;;;;4986868;28;20086;-77
2021/01/10 09:55:00;;;;;;;13.40;11.45;;;0.50;1.00;;;;;;4971901;28;20041;-77
2021/01/10 09:57:31;;;;;;;13.95;11.18;;;0.60;1.00;;;;;;4967666;28;20095;-77
2021/01/10 10:00:03;;;;;;;14.38;11.90;;;0.60;1.00;;;;;;4976197;28;20046;-77
2021/01/10 10:02:41;;;;;;;16.10;12.40;;;0.50;1.00;;;;;;4963365;28;20031;-78
2021/01/10 10:05:20;;;;;;;14.05;10.80;;;0.50;1.00;;;;;;4956243;28;20035;-78
2021/01/10 10:07:52;;;;;;;13.00;10.43;;;0.60;1.00;;;;;;4960932;28;20038;-78
2021/01/10 10:10:24;;;;;;;15.18;11.25;;;0.50;1.00;;;;;;4960159;28;20070;-78
2021/01/10 10:12:53;;;;;;;13.68;10.95;;;0.70;1.00;;;;;;4961646;28;20063;-78
2021/01/10 10:15:43;;;;;;;13.75;10.40;;;0.90;1.00;;;;;;4968535;28;20023;-78
2021/01/10 10:18:19;;;;;;;15.20;11.95;;;0.90;1.00;;;;;;4943942;28;20130;-78
2021/01/10 10:21:01;;;;;;;14.82;10.98;;;1.00;1.00;;;;;;4974486;28;20119;-78
2021/01/10 10:23:36;;;;;;;16.50;11.52;;;1.10;1.00;;;;;;4973249;28;20051;-79
2021/01/10 10:26:04;;;;;;;16.55;11.43;;;1.00;1.00;;;;;;4966611;28;20546;-79
2021/01/10 10:28:32;;;;;;;15.88;10.95;;;0.90;1.00;;;;;;4963602;28;20031;-79
2021/01/10 10:31:24;;;;;;;14.90;10.85;;;1.10;1.00;;;;;;4962381;28;20027;-79
2021/01/10 10:33:55;;;;;;;15.30;11.52;;;1.20;99.90;;;;;;4966441;28;20041;-78
2021/01/10 10:36:23;;;;;;;;;;;1.00;1.00;;;;;;4972981;28;20024;-78
2021/01/10 10:39:19;;;;;;;13.82;10.50;;;1.00;1.00;;;;;;4988596;28;19918;-78
2021/01/10 10:41:45;;;;;;;16.70;13.02;;;1.30;99.90;;;;;;4941799;28;20045;-77
2021/01/10 10:44:18;;;;;;;13.75;11.10;;;1.00;1.00;;;;;;4989071;28;20059;-77
2021/01/10 10:46:47;;;;;;;13.73;10.90;;;1.10;99.90;;;;;;4990397;28;20102;-76
2021/01/10 10:49:16;;;;;;;12.98;10.68;;;1.10;1.00;;;;;;4992800;28;20043;-78
2021/01/10 10:51:48;;;;;;;12.43;10.43;;;1.00;1.00;;;;;;5007160;28;20034;-79
2021/01/10 10:54:19;;;;;;;14.05;11.38;;;1.20;1.00;;;;;;4985166;28;20106;-78
2021/01/10 10:57:06;;;;;;;12.13;9.98;;;1.40;99.90;;;;;;4982527;28;20026;-79
2021/01/10 10:59:40;;;;;;;14.02;10.93;;;1.50;99.90;;;;;;4987658;28;20580;-80
2021/01/10 11:02:15;;;;;;;13.25;10.82;;;1.40;99.90;;;;;;4989758;28;20151;-79
2021/01/10 11:04:57;;;;;;;17.08;10.90;;;1.40;99.90;;;;;;4993360;28;20059;-79
2021/01/10 11:07:34;;;;;;;12.75;10.55;;;1.40;99.90;;;;;;4991689;28;20030;-79
2021/01/10 11:10:11;;;;;;;15.65;12.07;;;1.60;99.90;;;;;;5002273;28;20034;-78
2021/01/10 11:12:44;;;;;;;12.48;11.05;;;1.70;99.90;;;;;;4980308;28;20413;-79
2021/01/10 11:15:16;;;;;;;14.93;12.15;;;1.50;99.90;;;;;;4984272;28;20106;-79
2021/01/10 11:18:03;;;;;;;12.55;10.25;;;1.70;99.90;;;;;;4996407;28;20023;-80
2021/01/10 11:20:28;;;;;;;12.77;9.77;;;1.80;99.90;;;;;;4979653;28;20131;-78
2021/01/10 11:22:54;;;;;;;12.68;10.57;;;1.50;99.90;;;;;;4974596;28;20038;-79
2021/01/10 11:25:20;;;;;;;10.57;9.35;;;1.60;1.00;;;;;;4980616;28;20053;-82
2021/01/10 11:27:45;;;;;;;13.90;10.95;;;1.60;99.90;;;;;;4984827;28;20038;-80
2021/01/10 11:30:17;;;;;;;11.75;9.57;;;1.60;99.90;;;;;;5000044;28;20031;-82
2021/01/10 11:32:52;;;;;;;14.85;10.63;;;1.50;99.90;;;;;;4993388;28;20051;-82
2021/01/10 11:35:23;;;;;;;12.75;10.73;;;1.90;99.90;;;;;;4993382;28;20015;-78
2021/01/10 11:37:49;;;;;;;11.18;9.98;;;2.20;99.90;;;;;;4988389;28;20034;-80
2021/01/10 11:40:15;;;;;;;10.65;9.30;;;2.40;99.90;;;;;;4983502;28;20048;-80
2021/01/10 11:42:41;;;;;;;11.00;8.95;;;2.50;99.90;;;;;;4997064;28;20023;-78
2021/01/10 11:45:07;;;;;;;12.93;9.57;;;2.40;99.90;;;;;;4986982;28;20157;-78
2021/01/10 11:47:35;;;;;;;9.65;8.02;;;2.40;99.90;;;;;;4985217;28;20044;-77
2021/01/10 11:50:00;;;;;;;10.82;8.18;;;2.40;99.90;;;;;;4976876;28;20502;-77
2021/01/10 11:52:26;;;;;;;10.45;8.90;;;2.80;99.90;;;;;;4984147;28;20023;-77
2021/01/10 11:54:51;;;;;;;9.45;8.15;;;2.70;99.90;;;;;;4981763;28;20434;-79
2021/01/10 11:57:17;;;;;;;11.27;8.88;;;2.90;99.90;;;;;;4986294;28;20061;-78
2021/01/10 11:59:42;;;;;;;12.07;9.20;;;3.00;42.90;;;;;;4973703;28;20033;-76
2021/01/10 12:02:08;;;;;;;15.23;9.57;;;3.00;60.20;;;;;;4981527;28;20037;-79
2021/01/10 12:04:33;;;;;;;10.32;8.65;;;3.00;5.70;;;;;;4983376;28;20027;-79
2021/01/10 12:06:59;;;;;;;10.88;9.00;;;2.80;99.90;;;;;;4976605;28;20106;-79
2021/01/10 12:09:25;;;;;;;11.45;8.15;;;3.20;62.30;;;;;;4972251;28;20034;-79
2021/01/10 12:11:50;;;;;;;9.13;8.23;;;3.30;1.00;;;;;;4976848;28;20025;-78
2021/01/10 12:14:16;;;;;;;9.13;8.05;;;3.30;1.00;;;;;;4986724;28;20023;-79
2021/01/10 12:16:42;;;;;;;9.38;8.18;;;3.30;1.00;;;;;;4982889;28;20019;-80
2021/01/10 12:19:07;;;;;;;10.35;8.25;;;3.40;1.00;;;;;;4983232;28;20097;-77
2021/01/10 12:21:33;;;;;;;10.43;8.45;;;3.60;1.00;;;;;;4980955;28;20083;-78
2021/01/10 12:23:59;;;;;;;10.75;8.13;;;3.70;1.00;;;;;;4987647;28;20065;-77
2021/01/10 12:26:25;;;;;;;9.73;8.38;;;3.80;1.00;;;;;;4995265;28;20500;-79
2021/01/10 12:28:51;;;;;;;9.00;8.02;;;3.70;99.90;;;;;;4993303;28;20050;-78
2021/01/10 12:31:17;;;;;;;10.38;8.90;;;3.70;1.00;;;;;;4994560;28;20026;-78
2021/01/10 12:33:43;;;;;;;11.60;8.70;;;3.70;1.00;;;;;;4994556;28;20022;-80
2021/01/10 12:36:10;;;;;;;9.85;8.25;;;4.00;99.90;;;;;;4988424;28;20092;-79
2021/01/10 12:38:36;;;;;;;8.20;7.22;;;4.10;99.90;;;;;;5002177;28;20525;-79
2021/01/10 12:41:03;;;;;;;12.00;7.80;;;4.20;99.90;;;;;;5014701;28;20086;-78
2021/01/10 12:43:29;;;;;;;11.25;8.48;;;4.10;99.90;;;;;;5004610;28;20030;-78
2021/01/10 12:45:54;;;;;;;10.63;8.57;;;4.10;99.90;;;;;;5004772;28;20502;-79
2021/01/10 12:48:20;;;;;;;8.20;6.88;;;4.20;99.90;;;;;;5007264;28;20041;-78
2021/01/10 12:50:46;;;;;;;8.88;7.28;;;4.30;99.90;;;;;;5008175;28;20034;-78
2021/01/10 12:53:13;;;;;;;8.05;6.97;;;4.30;98.20;;;;;;4996214;28;20019;-79
2021/01/10 12:55:38;;;;;;;8.52;6.85;;;4.20;99.90;;;;;;4998414;28;20487;-78